createdAt,value
2022-10-05T00:00:38.757Z,98967.63
2022-10-05T00:03:41.213Z,98979.78
2022-10-05T00:06:43.469Z,98977.13
2022-10-05T00:09:45.389Z,98971.91
2022-10-05T00:12:47.101Z,98961.47
2022-10-05T00:15:48.586Z,98963.19
2022-10-05T00:18:51.889Z,98956.25
2022-10-05T00:21:53.289Z,98950.19
2022-10-05T00:25:01.715Z,98951.03
2022-10-05T00:28:03.159Z,98950.13
2022-10-05T00:31:07.489Z,98941.41
2022-10-05T00:34:08.821Z,98937.84
2022-10-05T00:37:10.201Z,98941.31
2022-10-05T00:40:20.617Z,98946.47
2022-10-05T00:43:27.970Z,98932.59
2022-10-05T00:46:29.282Z,98935.19
2022-10-05T00:49:49.464Z,98930.88
2022-10-05T00:53:06.143Z,98931.66
2022-10-05T00:56:11.804Z,98929.06
2022-10-05T00:59:28.215Z,98934.25
2022-10-05T01:02:34.380Z,98929.00
2022-10-05T01:05:45.337Z,98942.81
2022-10-05T01:08:52.801Z,98945.44
2022-10-05T01:12:10.849Z,98936.81
2022-10-05T01:15:12.149Z,98941.16
2022-10-05T01:18:24.972Z,98931.56
2022-10-05T01:21:26.505Z,98926.31
2022-10-05T01:24:30.912Z,98931.56
2022-10-05T01:27:35.321Z,98930.69
2022-10-05T01:30:38.023Z,98923.66
2022-10-05T01:33:45.431Z,98929.75
2022-10-05T01:36:56.607Z,98922.91
2022-10-05T01:40:01.102Z,98924.63
2022-10-05T01:43:10.819Z,98919.44
2022-10-05T01:46:15.319Z,98918.41
2022-10-05T01:49:31.943Z,98913.16
2022-10-05T01:52:51.941Z,98915.75
2022-10-05T01:55:58.898Z,98907.88
2022-10-05T01:59:16.272Z,98910.38
2022-10-05T02:02:18.360Z,98906.97
2022-10-05T02:05:20.778Z,98905.16
2022-10-05T02:08:24.072Z,98899.13
2022-10-05T02:11:25.419Z,98894.94
2022-10-05T02:14:32.720Z,98885.47
2022-10-05T02:17:38.808Z,98885.53
2022-10-05T02:20:40.189Z,98883.78
2022-10-05T02:23:41.587Z,98892.50
2022-10-05T02:26:43.249Z,98884.88
2022-10-05T02:29:45.187Z,98876.19
2022-10-05T02:32:56.602Z,98886.59
2022-10-05T02:36:17.268Z,98886.53
2022-10-05T02:39:25.803Z,98890.06
2022-10-05T02:42:31.902Z,98884.91
2022-10-05T02:45:39.443Z,98886.59
2022-10-05T02:48:43.823Z,98901.28
2022-10-05T02:51:51.284Z,98900.41
2022-10-05T02:55:02.188Z,98897.72
2022-10-05T02:58:25.765Z,98898.63
2022-10-05T03:01:36.044Z,98904.75
2022-10-05T03:04:56.285Z,98904.75
2022-10-05T03:08:05.801Z,98898.63
2022-10-05T03:11:11.938Z,98902.25
2022-10-05T03:14:13.469Z,98893.44
2022-10-05T03:17:19.109Z,98886.50
2022-10-05T03:20:23.524Z,98881.28
2022-10-05T03:23:38.307Z,98876.97
2022-10-05T03:26:42.844Z,98868.25
2022-10-05T03:29:47.661Z,98872.63
2022-10-05T03:32:58.562Z,98860.50
2022-10-05T03:36:06.169Z,98862.25
2022-10-05T03:39:10.755Z,98866.63
2022-10-05T03:42:41.500Z,98856.28
2022-10-05T03:45:48.362Z,98860.59
2022-10-05T03:48:49.734Z,98858.03
2022-10-05T03:51:52.819Z,98857.13
2022-10-05T03:55:02.314Z,98865.84
2022-10-05T03:58:06.287Z,98861.38
2022-10-05T04:01:09.044Z,98858.78
2022-10-05T04:04:11.551Z,98858.81
2022-10-05T04:07:18.123Z,98855.31
2022-10-05T04:10:21.679Z,98854.44
2022-10-05T04:13:29.084Z,98855.41
2022-10-05T04:16:47.407Z,98854.53
2022-10-05T04:20:00.295Z,98846.78
2022-10-05T04:23:12.408Z,98841.56
2022-10-05T04:26:14.799Z,98844.06
2022-10-05T04:29:24.718Z,98845.00
2022-10-05T04:32:31.295Z,98841.25
2022-10-05T04:35:51.477Z,98844.75
2022-10-05T04:38:57.602Z,98833.50
2022-10-05T04:42:04.483Z,98837.81
2022-10-05T04:45:05.847Z,98831.81
2022-10-05T04:48:26.014Z,98843.16
2022-10-05T04:51:33.453Z,98846.63
2022-10-05T04:55:10.437Z,98846.63
2022-10-05T04:58:23.808Z,98849.91
2022-10-05T05:01:48.284Z,98840.47
2022-10-05T05:04:55.145Z,98850.00
2022-10-05T05:08:16.740Z,98858.66
2022-10-05T05:11:24.708Z,98863.75
2022-10-05T05:14:29.802Z,98864.63
2022-10-05T05:17:36.363Z,98862.13
2022-10-05T05:20:56.709Z,98872.56
2022-10-05T05:24:03.350Z,98867.34
2022-10-05T05:27:23.584Z,98880.38
2022-10-05T05:30:26.726Z,98883.78
2022-10-05T05:33:28.043Z,98878.59
2022-10-05T05:36:38.218Z,98883.75
2022-10-05T05:39:54.981Z,98890.63
2022-10-05T05:43:03.073Z,98889.69
2022-10-05T05:46:06.313Z,98892.19
2022-10-05T05:49:12.637Z,98885.31
2022-10-05T05:52:16.225Z,98881.75
2022-10-05T05:55:17.578Z,98893.13
2022-10-05T05:58:20.695Z,98893.97
2022-10-05T06:01:33.280Z,98898.31
2022-10-05T06:04:43.718Z,98904.31
2022-10-05T06:07:45.191Z,98908.56
2022-10-05T06:10:50.720Z,98905.91
2022-10-05T06:13:52.085Z,98913.59
2022-10-05T06:16:56.482Z,98916.31
2022-10-05T06:20:02.455Z,98909.22
2022-10-05T06:23:07.583Z,98918.00
2022-10-05T06:26:18.186Z,98917.19
2022-10-05T06:29:20.543Z,98925.09
2022-10-05T06:32:33.405Z,98924.28
2022-10-05T06:35:43.910Z,98920.81
2022-10-05T06:39:08.045Z,98919.94
2022-10-05T06:42:28.213Z,98921.81
2022-10-05T06:45:40.150Z,98933.88
2022-10-05T06:48:47.380Z,98924.31
2022-10-05T06:52:08.204Z,98927.00
2022-10-05T06:55:23.601Z,98932.38
2022-10-05T06:58:31.068Z,98921.25
2022-10-05T07:01:48.189Z,98923.97
2022-10-05T07:04:54.169Z,98921.41
2022-10-05T07:07:57.817Z,98919.78
2022-10-05T07:11:04.586Z,98919.97
2022-10-05T07:14:12.293Z,98918.41
2022-10-05T07:17:16.574Z,98917.59
2022-10-05T07:20:20.938Z,98908.22
2022-10-05T07:23:24.488Z,98917.00
2022-10-05T07:26:28.025Z,98909.25
2022-10-05T07:29:32.100Z,98919.84
2022-10-05T07:32:39.673Z,98910.44
2022-10-05T07:36:05.432Z,98920.13
2022-10-05T07:39:06.780Z,98910.66
2022-10-05T07:42:08.105Z,98919.44
2022-10-05T07:45:28.345Z,98914.25
2022-10-05T07:48:33.248Z,98919.56
2022-10-05T07:51:41.577Z,98922.25
2022-10-05T07:54:45.335Z,98917.06
2022-10-05T07:57:46.653Z,98909.22
2022-10-05T08:01:00.449Z,98913.59
2022-10-05T08:04:04.869Z,98915.34
2022-10-05T08:07:06.729Z,98908.41
2022-10-05T08:10:23.439Z,98903.19
2022-10-05T08:13:34.078Z,98904.84
2022-10-05T08:16:36.078Z,98896.06
2022-10-05T08:19:43.286Z,98895.94
2022-10-05T08:22:49.540Z,98895.81
2022-10-05T08:26:02.735Z,98889.50
2022-10-05T08:29:23.224Z,98890.75
2022-10-05T08:32:25.716Z,98895.19
2022-10-05T08:35:27.046Z,98901.72
2022-10-05T08:38:29.963Z,98913.47
2022-10-05T08:41:46.658Z,98924.09
2022-10-05T08:45:10.830Z,98946.44
2022-10-05T08:48:19.285Z,98966.19
2022-10-05T08:51:23.621Z,98987.50
2022-10-05T08:54:43.761Z,99005.16
2022-10-05T08:58:06.050Z,99011.97
2022-10-05T09:01:10.055Z,99020.88
2022-10-05T09:04:22.531Z,99020.00
2022-10-05T09:07:28.614Z,99025.22
2022-10-05T09:10:41.157Z,99021.59
2022-10-05T09:14:04.334Z,99016.78
2022-10-05T09:17:24.009Z,99031.94
2022-10-05T09:20:32.187Z,99026.84
2022-10-05T09:23:38.109Z,99030.72
2022-10-05T09:26:48.611Z,99030.41
2022-10-05T09:30:02.145Z,99019.69
2022-10-05T09:33:06.561Z,99014.81
2022-10-05T09:36:17.514Z,99014.06
2022-10-05T09:39:21.800Z,99008.44
2022-10-05T09:42:35.327Z,99005.78
2022-10-05T09:45:36.693Z,99008.63
2022-10-05T09:48:53.458Z,99010.47
2022-10-05T09:51:54.737Z,99009.28
2022-10-05T09:55:05.542Z,98996.13
2022-10-05T09:58:06.871Z,98999.25
2022-10-05T10:01:33.786Z,99001.41
2022-10-05T10:04:38.535Z,98996.44
2022-10-05T10:07:50.234Z,98998.72
2022-10-05T10:11:10.375Z,98988.34
2022-10-05T10:14:23.972Z,98986.94
2022-10-05T10:17:44.285Z,98981.03
2022-10-05T10:21:04.646Z,98980.94
2022-10-05T10:24:15.220Z,98986.50
2022-10-05T10:27:16.624Z,98981.16
2022-10-05T10:30:36.769Z,98983.41
2022-10-05T10:33:38.074Z,98974.56
2022-10-05T10:36:57.752Z,98982.25
2022-10-05T10:40:08.421Z,98975.75
2022-10-05T10:43:28.407Z,98964.03
2022-10-05T10:46:45.243Z,98957.16
2022-10-05T10:49:46.577Z,98935.38
2022-10-05T10:53:20.458Z,98937.63
2022-10-05T10:56:40.424Z,98942.81
2022-10-05T10:59:50.902Z,98945.59
2022-10-05T11:02:55.289Z,98932.13
2022-10-05T11:05:59.669Z,98910.31
2022-10-05T11:09:04.247Z,98911.63
2022-10-05T11:12:08.680Z,98923.59
2022-10-05T11:15:28.379Z,98916.81
2022-10-05T11:18:48.540Z,98891.06
2022-10-05T11:22:09.682Z,98906.72
2022-10-05T11:25:16.834Z,98909.88
2022-10-05T11:28:18.197Z,98885.06
2022-10-05T11:31:40.308Z,98929.28
2022-10-05T11:35:00.121Z,98927.63
2022-10-05T11:38:13.813Z,98928.22
2022-10-05T11:41:15.103Z,98916.06
2022-10-05T11:44:24.600Z,98920.19
2022-10-05T11:47:30.210Z,98930.91
2022-10-05T11:50:33.937Z,98933.72
2022-10-05T11:53:55.199Z,98918.38
2022-10-05T11:56:59.001Z,98931.28
2022-10-05T12:00:19.486Z,98916.75
2022-10-05T12:03:39.872Z,98892.94
2022-10-05T12:06:48.639Z,98916.22
2022-10-05T12:10:16.804Z,98911.09
2022-10-05T12:13:21.204Z,98889.16
2022-10-05T12:16:31.566Z,98903.38
2022-10-05T12:19:41.087Z,98898.31
2022-10-05T12:22:46.750Z,98901.69
2022-10-05T12:25:50.893Z,98882.97
2022-10-05T12:28:57.748Z,98889.91
2022-10-05T12:32:00.803Z,98873.38
2022-10-05T12:35:29.998Z,98893.94
2022-10-05T12:38:39.438Z,98895.53
2022-10-05T12:41:56.060Z,98850.50
2022-10-05T12:45:04.300Z,98867.16
2022-10-05T12:48:20.825Z,98856.75
2022-10-05T12:51:31.946Z,98838.22
2022-10-05T12:54:36.834Z,98842.25
2022-10-05T12:57:44.203Z,98851.78
2022-10-05T13:00:54.573Z,98830.94
2022-10-05T13:04:10.179Z,98848.91
2022-10-05T13:07:20.778Z,98857.47
2022-10-05T13:10:24.725Z,98848.06
2022-10-05T13:13:43.485Z,98857.97
2022-10-05T13:16:54.836Z,98824.94
2022-10-05T13:20:03.161Z,98826.78
2022-10-05T13:23:13.952Z,98825.50
2022-10-05T13:26:19.439Z,98814.16
2022-10-05T13:29:38.736Z,98840.16
2022-10-05T13:32:48.032Z,98808.00
2022-10-05T13:35:50.998Z,98784.34
2022-10-05T13:38:59.686Z,98802.78
2022-10-05T13:42:15.397Z,98801.94
2022-10-05T13:45:20.325Z,98789.66
2022-10-05T13:48:40.520Z,98792.34
2022-10-05T13:51:46.381Z,98817.34
2022-10-05T13:54:50.836Z,98820.78
2022-10-05T13:58:07.521Z,98776.09
2022-10-05T14:01:13.359Z,98793.38
2022-10-05T14:04:19.828Z,98817.03
2022-10-05T14:07:30.334Z,98799.50
2022-10-05T14:10:38.293Z,98789.31
2022-10-05T14:13:46.768Z,98810.78
2022-10-05T14:16:57.998Z,98796.31
2022-10-05T14:20:00.132Z,98776.28
2022-10-05T14:23:02.125Z,98769.53
2022-10-05T14:26:15.525Z,98764.25
2022-10-05T14:29:17.764Z,98777.31
2022-10-05T14:32:21.577Z,98781.56
2022-10-05T14:35:41.662Z,98775.78
2022-10-05T14:38:55.738Z,98774.19
2022-10-05T14:41:57.142Z,98762.16
2022-10-05T14:44:59.431Z,98743.53
2022-10-05T14:48:01.617Z,98794.38
2022-10-05T14:51:09.226Z,98765.38
2022-10-05T14:54:33.937Z,98787.47
2022-10-05T14:58:04.736Z,98809.13
2022-10-05T15:01:39.260Z,98782.41
2022-10-05T15:04:44.650Z,98817.94
2022-10-05T15:07:48.257Z,98825.56
2022-10-05T15:10:51.018Z,98858.28
2022-10-05T15:13:52.468Z,98816.19
2022-10-05T15:16:54.068Z,98847.03
2022-10-05T15:19:59.214Z,98868.16
2022-10-05T15:23:24.506Z,98861.50
2022-10-05T15:26:40.496Z,98862.59
2022-10-05T15:29:52.028Z,98875.72
2022-10-05T15:32:55.430Z,98863.75
2022-10-05T15:36:14.512Z,98860.09
2022-10-05T15:39:28.707Z,98871.06
2022-10-05T15:42:38.332Z,98902.59
2022-10-05T15:46:03.048Z,98871.69
2022-10-05T15:49:13.815Z,98891.91
2022-10-05T15:52:23.792Z,98883.78
2022-10-05T15:55:35.227Z,98896.78
2022-10-05T15:58:36.540Z,98895.03
2022-10-05T16:01:44.282Z,98880.28
2022-10-05T16:04:55.803Z,98889.56
2022-10-05T16:08:15.998Z,98903.31
2022-10-05T16:11:29.920Z,98912.38
2022-10-05T16:14:31.346Z,98901.44
2022-10-05T16:17:41.827Z,98904.38
2022-10-05T16:20:46.935Z,98912.16
2022-10-05T16:23:51.293Z,98917.03
2022-10-05T16:26:57.086Z,98913.59
2022-10-05T16:30:28.543Z,98917.63
2022-10-05T16:33:54.456Z,98916.38
2022-10-05T16:37:14.838Z,98918.44
2022-10-05T16:40:34.777Z,98913.88
2022-10-05T16:43:42.217Z,98911.75
2022-10-05T16:46:43.633Z,98922.59
2022-10-05T16:49:53.707Z,98923.13
2022-10-05T16:53:05.859Z,98918.41
2022-10-05T16:56:14.811Z,98917.03
2022-10-05T16:59:30.598Z,98921.09
2022-10-05T17:02:41.196Z,98923.28
2022-10-05T17:09:09.039Z,98936.00
2022-10-05T17:12:22.613Z,98923.22
2022-10-05T17:15:28.699Z,98923.25
2022-10-05T17:18:50.338Z,98920.66
2022-10-05T17:21:56.019Z,98930.44
2022-10-05T17:25:00.525Z,98925.34
2022-10-05T17:28:20.859Z,98937.84
2022-10-05T17:31:22.503Z,98944.13
2022-10-05T17:34:26.334Z,98938.69
2022-10-05T17:37:27.711Z,98940.53
2022-10-05T17:40:29.059Z,98959.06
2022-10-05T17:43:30.866Z,98966.19
2022-10-05T17:46:38.641Z,98968.94
2022-10-05T17:50:12.412Z,98965.66
2022-10-05T17:53:42.220Z,98961.47
2022-10-05T17:56:46.697Z,98976.53
2022-10-05T17:59:51.241Z,98974.97
2022-10-05T18:02:53.117Z,98976.78
2022-10-05T18:06:17.514Z,98990.03
2022-10-05T18:09:21.885Z,98990.94
2022-10-05T18:12:27.339Z,98993.72
2022-10-05T18:15:28.654Z,98999.13
2022-10-05T18:18:33.079Z,98986.16
2022-10-05T18:21:37.050Z,98989.84
2022-10-05T18:24:41.119Z,98997.69
2022-10-05T18:27:42.467Z,98999.50
2022-10-05T18:30:58.098Z,98998.78
2022-10-05T18:34:18.458Z,98988.50
2022-10-05T18:37:21.313Z,99004.19
2022-10-05T18:40:34.290Z,99000.78
2022-10-05T18:43:54.323Z,98998.16
2022-10-05T18:47:14.209Z,99010.44
2022-10-05T18:50:22.488Z,99009.47
2022-10-05T18:53:38.938Z,99019.22
2022-10-05T18:56:43.306Z,99015.06
2022-10-05T18:59:48.149Z,99012.56
2022-10-05T19:02:54.313Z,99019.66
2022-10-05T19:06:08.335Z,99019.78
2022-10-05T19:09:27.367Z,99023.25
2022-10-05T19:12:47.558Z,99041.63
2022-10-05T19:16:08.266Z,99051.09
2022-10-05T19:19:12.262Z,99046.75
2022-10-05T19:22:32.572Z,99062.44
2022-10-05T19:25:37.346Z,99066.06
2022-10-05T19:28:40.520Z,99065.16
2022-10-05T19:31:55.043Z,99074.63
2022-10-05T19:35:05.810Z,99084.25
2022-10-05T19:38:15.199Z,99094.78
2022-10-05T19:41:16.969Z,99098.44
2022-10-05T19:44:30.573Z,99096.69
2022-10-05T19:47:46.457Z,99099.22
2022-10-05T19:50:57.626Z,99108.06
2022-10-05T19:54:02.663Z,99120.47
2022-10-05T19:57:04.226Z,99118.84
2022-10-05T20:00:08.917Z,99117.97
2022-10-05T20:03:12.099Z,99118.91
2022-10-05T20:06:13.886Z,99118.94
2022-10-05T20:09:19.257Z,99118.91
2022-10-05T20:12:22.980Z,99125.00
2022-10-05T20:15:52.990Z,99127.72
2022-10-05T20:19:13.116Z,99130.38
2022-10-05T20:22:23.483Z,99125.13
2022-10-05T20:25:24.811Z,99133.88
2022-10-05T20:28:30.060Z,99145.25
2022-10-05T20:31:32.242Z,99151.44
2022-10-05T20:34:35.000Z,99150.56
2022-10-05T20:37:36.894Z,99164.56
2022-10-05T20:40:39.916Z,99167.22
2022-10-05T20:43:41.242Z,99175.06
2022-10-05T20:46:42.702Z,99167.22
2022-10-05T20:49:44.584Z,99171.59
2022-10-05T20:52:45.973Z,99177.75
2022-10-05T20:55:47.293Z,99183.00
2022-10-05T20:58:48.933Z,99187.38
2022-10-05T21:01:50.501Z,99186.50
2022-10-05T21:04:51.995Z,99182.13
2022-10-05T21:07:53.384Z,99189.16
2022-10-05T21:10:54.792Z,99192.63
2022-10-05T21:13:56.297Z,99205.72
2022-10-05T21:16:57.639Z,99210.09
2022-10-05T21:19:59.909Z,99205.69
2022-10-05T21:23:01.250Z,99202.22
2022-10-05T21:26:02.578Z,99203.09
2022-10-05T21:29:05.973Z,99205.72
2022-10-05T21:32:11.981Z,99207.47
2022-10-05T21:35:13.483Z,99211.81
2022-10-05T21:38:14.879Z,99208.34
2022-10-05T21:41:16.273Z,99212.69
2022-10-05T21:44:18.169Z,99208.31
2022-10-05T21:47:19.524Z,99214.44
2022-10-05T21:50:20.869Z,99214.41
2022-10-05T21:53:23.057Z,99210.94
2022-10-05T21:56:25.276Z,99204.81
2022-10-05T21:59:27.726Z,99210.03
2022-10-05T22:02:29.118Z,99224.84
2022-10-05T22:05:30.530Z,99211.75
2022-10-05T22:08:32.514Z,99210.03
2022-10-05T22:11:34.196Z,99215.25
2022-10-05T22:14:35.515Z,99214.34
2022-10-05T22:17:36.958Z,99215.25
2022-10-05T22:20:38.313Z,99219.53
2022-10-05T22:23:40.134Z,99217.81
2022-10-05T22:26:41.812Z,99221.25
2022-10-05T22:29:43.162Z,99225.63
2022-10-05T22:32:44.635Z,99220.41
2022-10-05T22:35:45.984Z,99224.78
2022-10-05T22:38:47.722Z,99224.78
2022-10-05T22:41:49.749Z,99232.66
2022-10-05T22:44:51.090Z,99219.56
2022-10-05T22:47:52.425Z,99230.00
2022-10-05T22:50:53.807Z,99232.63
2022-10-05T22:53:55.142Z,99238.69
2022-10-05T22:56:56.559Z,99239.53
2022-10-05T22:59:57.906Z,99237.78
2022-10-05T23:02:59.241Z,99232.47
2022-10-05T23:06:03.125Z,99241.22
2022-10-05T23:09:04.651Z,99243.81
2022-10-05T23:12:06.122Z,99240.31
2022-10-05T23:15:07.775Z,99241.16
2022-10-05T23:18:09.125Z,99254.19
2022-10-05T23:21:10.580Z,99255.06
2022-10-05T23:24:11.930Z,99252.38
2022-10-05T23:27:13.309Z,99249.78
2022-10-05T23:30:14.791Z,99257.63
2022-10-05T23:33:16.151Z,99252.38
2022-10-05T23:36:18.321Z,99247.16
2022-10-05T23:39:19.645Z,99250.59
2022-10-05T23:42:21.163Z,99251.44
2022-10-05T23:45:22.485Z,99252.28
2022-10-05T23:48:24.885Z,99251.38
2022-10-05T23:51:26.518Z,99261.00
2022-10-05T23:54:27.881Z,99252.25
2022-10-05T23:57:29.248Z,99254.00
